Time;durP1;ratioP1;P1;durP2;ratioP2;P2;SDS_P1;SDS_P2;PMS_P1;PMS_P2;Temp;Humidity;BMP_temperature;BMP_pressure;BME280_temperature;BME280_humidity;BME280_pressure;Samples;Min_cycle;Max_cycle;Signal;HPM_P1;HPM_P2
2020/12/14 00:01:48;;;;;;;138.48;51.63;;;4.50;99.90;;;;;;5120313;28;20217;-82
2020/12/14 00:04:14;;;;;;;144.50;46.45;;;4.50;99.90;;;;;;5119435;28;20697;-81
2020/12/14 00:06:40;;;;;;;136.60;47.78;;;4.60;99.90;;;;;;5118611;28;20225;-81
2020/12/14 00:09:06;;;;;;;140.25;47.35;;;4.60;99.90;;;;;;5118409;28;20291;-80
2020/12/14 00:11:36;;;;;;;123.88;48.80;;;4.60;99.90;;;;;;5117448;28;20192;-80
2020/12/14 00:14:02;;;;;;;118.90;43.53;;;4.60;99.90;;;;;;5116728;28;20212;-79
2020/12/14 00:16:29;;;;;;;119.60;44.35;;;4.70;99.90;;;;;;5118298;28;20266;-82
2020/12/14 00:18:56;;;;;;;121.70;45.85;;;4.60;99.90;;;;;;5118639;28;20205;-81
2020/12/14 00:21:22;;;;;;;153.40;51.22;;;4.60;99.90;;;;;;5116257;28;20526;-80
2020/12/14 00:23:51;;;;;;;117.50;42.70;;;4.70;99.90;;;;;;5118632;28;20261;-81
2020/12/14 00:26:17;;;;;;;116.60;43.55;;;4.70;99.90;;;;;;5118653;28;20215;-80
2020/12/14 00:28:47;;;;;;;110.97;45.15;;;4.60;99.90;;;;;;5105762;22;20699;-83
2020/12/14 00:31:14;;;;;;;118.03;44.40;;;4.60;99.90;;;;;;5064131;28;20191;-82
2020/12/14 00:33:40;;;;;;;130.43;49.80;;;4.60;99.90;;;;;;5065329;28;20218;-82
2020/12/14 00:36:08;;;;;;;121.55;45.70;;;4.70;99.90;;;;;;5063906;28;20202;-83
2020/12/14 00:38:34;;;;;;;122.82;47.40;;;4.60;99.90;;;;;;5064775;28;20226;-83
2020/12/14 00:41:01;;;;;;;117.50;44.42;;;4.60;99.90;;;;;;5058784;28;20271;-83
2020/12/14 00:43:27;;;;;;;120.68;45.53;;;4.70;99.90;;;;;;5057380;28;20199;-83
2020/12/14 00:45:55;;;;;;;114.88;44.63;;;4.70;99.90;;;;;;5057827;28;20266;-82
2020/12/14 00:48:21;;;;;;;115.88;44.80;;;4.70;99.90;;;;;;5058450;28;20584;-83
2020/12/14 00:50:47;;;;;;;103.55;45.28;;;4.70;99.90;;;;;;5057655;28;20203;-82
2020/12/14 00:53:15;;;;;;;104.78;43.13;;;4.80;99.90;;;;;;5056628;28;20318;-81
2020/12/14 00:55:41;;;;;;;105.75;42.78;;;4.70;99.90;;;;;;5058680;28;20194;-80
2020/12/14 00:58:07;;;;;;;103.40;41.28;;;4.70;99.90;;;;;;5063006;28;20257;-80
2020/12/14 01:00:34;;;;;;;107.65;40.97;;;4.70;99.90;;;;;;5063284;28;20211;-82
2020/12/14 01:03:00;;;;;;;108.35;42.55;;;4.80;99.90;;;;;;5074012;28;20221;-80
2020/12/14 01:05:26;;;;;;;118.00;41.42;;;4.80;99.90;;;;;;5072671;28;20231;-83
2020/12/14 01:07:53;;;;;;;102.72;42.58;;;4.70;99.90;;;;;;5068354;28;20286;-82
2020/12/14 01:10:20;;;;;;;105.32;42.97;;;4.80;99.90;;;;;;5067176;28;20210;-82
2020/12/14 01:12:46;;;;;;;92.95;40.35;;;4.80;99.90;;;;;;5064096;28;20291;-80
2020/12/14 01:15:12;;;;;;;101.05;39.75;;;4.90;99.90;;;;;;5063871;28;20203;-81
2020/12/14 01:17:39;;;;;;;90.80;39.10;;;4.80;99.90;;;;;;5062346;28;20325;-81
2020/12/14 01:20:05;;;;;;;98.43;40.00;;;4.90;99.90;;;;;;5061312;28;20234;-81
2020/12/14 01:22:32;;;;;;;95.55;38.78;;;4.80;99.90;;;;;;5061360;28;20198;-81
2020/12/14 01:24:58;;;;;;;89.90;38.92;;;4.80;99.90;;;;;;5062227;28;20229;-82
2020/12/14 01:27:25;;;;;;;82.75;38.25;;;4.90;99.90;;;;;;5061286;28;20785;-81
2020/12/14 01:29:52;;;;;;;88.47;41.55;;;5.00;99.90;;;;;;5064424;28;20679;-82
2020/12/14 01:32:18;;;;;;;89.88;40.65;;;5.10;99.90;;;;;;5064416;28;20290;-83
2020/12/14 01:34:45;;;;;;;91.28;40.13;;;5.00;99.90;;;;;;5068868;28;20210;-84
2020/12/14 01:37:15;;;;;;;81.78;38.58;;;4.90;99.90;;;;;;5071143;28;20248;-83
2020/12/14 01:39:42;;;;;;;96.15;40.83;;;5.00;99.90;;;;;;5071056;28;20187;-82
2020/12/14 01:42:08;;;;;;;93.53;39.38;;;5.00;99.90;;;;;;5067897;28;20285;-84
2020/12/14 01:44:38;;;;;;;101.43;43.05;;;4.90;99.90;;;;;;5069371;28;20270;-81
2020/12/14 01:47:07;;;;;;;101.82;39.42;;;4.90;99.90;;;;;;5068379;28;20267;-83
2020/12/14 01:49:33;;;;;;;118.97;43.25;;;4.90;99.90;;;;;;5067299;28;20227;-83
2020/12/14 01:52:02;;;;;;;111.00;44.38;;;4.90;99.90;;;;;;5065617;28;20210;-80
2020/12/14 01:54:30;;;;;;;107.15;41.42;;;4.90;99.90;;;;;;5065312;28;20289;-82
2020/12/14 01:57:01;;;;;;;109.53;43.15;;;4.80;99.90;;;;;;5063678;28;20203;-81
2020/12/14 01:59:28;;;;;;;119.53;43.53;;;4.90;99.90;;;;;;5064344;28;20286;-82
2020/12/14 02:01:58;;;;;;;100.05;40.65;;;4.90;99.90;;;;;;5065388;28;20249;-81
2020/12/14 02:04:24;;;;;;;106.13;39.67;;;4.90;99.90;;;;;;5064120;28;20207;-82
2020/12/14 02:06:50;;;;;;;114.82;42.38;;;5.00;99.90;;;;;;5064572;28;20203;-82
2020/12/14 02:09:17;;;;;;;100.70;42.80;;;5.10;99.90;;;;;;5064155;28;20613;-82
2020/12/14 02:11:43;;;;;;;97.30;42.17;;;5.10;99.90;;;;;;5065935;28;20222;-82
2020/12/14 02:14:10;;;;;;;84.72;37.47;;;5.00;99.90;;;;;;5068142;28;20267;-83
2020/12/14 02:16:36;;;;;;;104.65;40.08;;;5.00;99.90;;;;;;5067344;28;20222;-82
2020/12/14 02:19:05;;;;;;;80.60;36.15;;;5.00;99.90;;;;;;5062474;28;20219;-81
2020/12/14 02:21:32;;;;;;;106.63;36.58;;;5.10;99.90;;;;;;5067068;28;20582;-81
2020/12/14 02:23:58;;;;;;;71.05;36.03;;;5.10;99.90;;;;;;5069331;28;20227;-81
2020/12/14 02:26:25;;;;;;;76.28;33.15;;;5.00;99.90;;;;;;5070018;28;20199;-81
2020/12/14 02:28:52;;;;;;;90.00;34.50;;;5.00;99.90;;;;;;5064928;28;20284;-81
2020/12/14 02:31:21;;;;;;;82.60;34.13;;;5.00;99.90;;;;;;5066043;28;20230;-81
2020/12/14 02:33:47;;;;;;;90.22;34.65;;;5.10;99.90;;;;;;5066481;28;20223;-81
2020/12/14 02:36:14;;;;;;;60.65;29.17;;;5.10;99.90;;;;;;5067175;28;20203;-81
2020/12/14 02:38:40;;;;;;;101.20;34.50;;;5.10;99.90;;;;;;5067676;28;20229;-81
2020/12/14 02:41:06;;;;;;;77.82;33.40;;;5.10;99.90;;;;;;5067127;28;20206;-80
2020/12/14 02:43:33;;;;;;;73.00;31.98;;;5.10;99.90;;;;;;5067338;28;20203;-81
2020/12/14 02:46:00;;;;;;;73.53;30.83;;;5.10;99.90;;;;;;5068234;28;20203;-81
2020/12/14 02:48:26;;;;;;;83.35;32.25;;;5.10;99.90;;;;;;5064890;28;20227;-81
2020/12/14 02:50:52;;;;;;;88.53;34.17;;;5.10;99.90;;;;;;5065047;28;20238;-82
2020/12/14 02:53:19;;;;;;;86.85;33.97;;;5.10;99.90;;;;;;5069879;28;20254;-81
2020/12/14 02:55:45;;;;;;;97.75;34.97;;;5.10;99.90;;;;;;5067013;28;20286;-81
2020/12/14 02:58:11;;;;;;;109.53;44.00;;;5.10;99.90;;;;;;5063930;28;20230;-81
2020/12/14 03:00:38;;;;;;;104.93;37.45;;;5.10;99.90;;;;;;5062968;28;20289;-80
2020/12/14 03:03:09;;;;;;;93.28;38.13;;;5.10;99.90;;;;;;5067113;28;20571;-81
2020/12/14 03:05:35;;;;;;;97.28;37.05;;;5.20;99.90;;;;;;5067764;28;20183;-81
2020/12/14 03:08:01;;;;;;;99.93;39.38;;;5.10;99.90;;;;;;5066981;28;20226;-81
2020/12/14 03:10:31;;;;;;;102.20;35.30;;;5.10;99.90;;;;;;5065878;28;20207;-80
2020/12/14 03:12:57;;;;;;;108.97;36.03;;;5.10;99.90;;;;;;5066424;28;20261;-80
2020/12/14 03:15:23;;;;;;;109.40;45.00;;;5.20;99.90;;;;;;5062918;28;20210;-80
2020/12/14 03:17:53;;;;;;;103.20;39.13;;;5.20;99.90;;;;;;5069300;28;20295;-80
2020/12/14 03:20:20;;;;;;;126.30;42.25;;;5.20;99.90;;;;;;5070868;28;20203;-80
2020/12/14 03:22:46;;;;;;;86.20;38.63;;;5.20;99.90;;;;;;5071197;28;20227;-80
2020/12/14 03:25:14;;;;;;;92.00;37.38;;;5.20;99.90;;;;;;5069558;28;20199;-81
2020/12/14 03:27:40;;;;;;;91.70;38.03;;;5.20;99.90;;;;;;5067876;28;20226;-80
2020/12/14 03:30:06;;;;;;;78.32;35.67;;;5.20;99.90;;;;;;5065430;28;20263;-81
2020/12/14 03:32:33;;;;;;;82.38;34.50;;;5.20;99.90;;;;;;5067582;28;20242;-81
2020/12/14 03:35:03;;;;;;;78.10;35.58;;;5.30;99.90;;;;;;5071226;28;20271;-81
2020/12/14 03:37:30;;;;;;;79.35;33.38;;;5.30;99.90;;;;;;5071105;28;20215;-81
2020/12/14 03:39:58;;;;;;;75.50;32.92;;;5.30;99.90;;;;;;5070604;28;20267;-80
2020/12/14 03:42:25;;;;;;;88.28;31.05;;;5.40;99.90;;;;;;5076725;28;20218;-79
2020/12/14 03:44:51;;;;;;;82.60;33.65;;;5.30;99.90;;;;;;5075548;28;20230;-80
2020/12/14 03:47:17;;;;;;;79.32;35.50;;;5.20;99.90;;;;;;5070336;28;20266;-80
2020/12/14 03:49:43;;;;;;;74.07;34.15;;;5.20;99.90;;;;;;5070322;28;20207;-81
2020/12/14 03:52:11;;;;;;;85.85;35.60;;;5.20;99.90;;;;;;5069697;28;20203;-82
2020/12/14 03:54:37;;;;;;;80.55;30.33;;;5.10;99.90;;;;;;5070746;28;20222;-82
2020/12/14 03:57:03;;;;;;;70.88;31.67;;;5.00;99.90;;;;;;5069524;28;20206;-81
2020/12/14 03:59:30;;;;;;;61.78;29.40;;;5.00;99.90;;;;;;5069144;28;20223;-81
2020/12/14 04:01:56;;;;;;;66.45;30.20;;;5.00;99.90;;;;;;5070235;28;20270;-81
2020/12/14 04:04:23;;;;;;;54.53;28.90;;;5.00;99.90;;;;;;5070297;28;20209;-81
2020/12/14 04:06:49;;;;;;;54.90;29.40;;;4.90;99.90;;;;;;5073847;28;20271;-80
2020/12/14 04:09:17;;;;;;;58.90;28.42;;;4.90;99.90;;;;;;5077280;28;20314;-80
2020/12/14 04:11:43;;;;;;;50.55;26.98;;;4.90;99.90;;;;;;5075946;28;20226;-83
2020/12/14 04:14:09;;;;;;;54.38;25.92;;;4.80;99.90;;;;;;5074646;28;20233;-80
2020/12/14 04:16:35;;;;;;;55.03;25.85;;;4.80;99.90;;;;;;5073491;28;20271;-81
2020/12/14 04:19:02;;;;;;;76.32;27.55;;;4.80;99.90;;;;;;5067655;28;20288;-80
2020/12/14 04:21:28;;;;;;;58.00;25.95;;;4.80;99.90;;;;;;5065549;28;20742;-81
2020/12/14 04:23:54;;;;;;;52.38;28.55;;;4.80;99.90;;;;;;5067412;28;20203;-81
2020/12/14 04:26:22;;;;;;;50.47;28.60;;;4.80;99.90;;;;;;5066680;28;20293;-79
2020/12/14 04:28:48;;;;;;;47.03;24.92;;;4.90;99.90;;;;;;5064395;28;20314;-80
2020/12/14 04:31:14;;;;;;;57.30;24.67;;;4.80;99.90;;;;;;5066982;28;20199;-81
2020/12/14 04:33:41;;;;;;;37.95;24.75;;;4.80;99.90;;;;;;5066168;28;20229;-81
2020/12/14 04:36:07;;;;;;;50.75;26.25;;;4.80;99.90;;;;;;5066534;28;20248;-81
2020/12/14 04:38:34;;;;;;;50.67;25.52;;;4.80;99.90;;;;;;5067786;28;20261;-80
2020/12/14 04:41:02;;;;;;;50.05;26.52;;;4.70;99.90;;;;;;5067162;28;20271;-80
2020/12/14 04:43:30;;;;;;;53.17;25.25;;;4.70;99.90;;;;;;5067793;28;20275;-80
2020/12/14 04:45:56;;;;;;;48.17;25.17;;;4.70;99.90;;;;;;5067512;28;20697;-81
2020/12/14 04:48:24;;;;;;;48.90;26.63;;;4.90;99.90;;;;;;5067113;28;20223;-81
2020/12/14 04:50:51;;;;;;;41.95;24.05;;;4.80;99.90;;;;;;5066048;28;20214;-79
2020/12/14 04:53:17;;;;;;;42.83;25.85;;;4.80;99.90;;;;;;5065925;28;20272;-81
2020/12/14 04:55:43;;;;;;;51.00;27.60;;;4.70;99.90;;;;;;5064422;28;20970;-80
2020/12/14 04:58:10;;;;;;;39.55;25.77;;;4.80;99.90;;;;;;5066382;28;20245;-81
2020/12/14 05:00:37;;;;;;;53.50;27.77;;;4.80;99.90;;;;;;5064506;28;20271;-80
2020/12/14 05:03:04;;;;;;;47.17;27.23;;;4.70;99.90;;;;;;5066089;28;20474;-81
2020/12/14 05:05:31;;;;;;;50.72;26.77;;;4.60;99.90;;;;;;5065374;28;20199;-81
2020/12/14 05:07:57;;;;;;;44.10;25.25;;;4.70;99.90;;;;;;5066323;28;20226;-79
2020/12/14 05:10:25;;;;;;;50.70;27.77;;;4.70;99.90;;;;;;5066469;28;20205;-82
2020/12/14 05:12:52;;;;;;;43.08;25.77;;;4.70;99.90;;;;;;5066880;28;20291;-81
2020/12/14 05:15:20;;;;;;;49.22;27.38;;;4.60;99.90;;;;;;5066725;28;20274;-80
2020/12/14 05:17:47;;;;;;;44.83;25.77;;;4.70;99.90;;;;;;5064604;28;20305;-82
2020/12/14 05:20:15;;;;;;;44.10;26.40;;;4.80;99.90;;;;;;5064926;28;20203;-80
2020/12/14 05:22:58;;;;;;;53.90;29.00;;;4.70;99.90;;;;;;5064924;28;20499;-80
2020/12/14 05:25:24;;;;;;;63.78;32.33;;;4.70;99.90;;;;;;5065320;28;20466;-79
2020/12/14 05:28:01;;;;;;;49.75;27.02;;;4.60;99.90;;;;;;5069668;28;20290;-81
2020/12/14 05:30:34;;;;;;;52.70;29.20;;;4.70;99.90;;;;;;5065604;28;20562;-81
2020/12/14 05:33:01;;;;;;;45.00;26.80;;;4.70;99.90;;;;;;5064337;28;20302;-80
2020/12/14 05:35:32;;;;;;;49.53;27.23;;;4.70;99.90;;;;;;5064398;28;20222;-82
2020/12/14 05:38:20;;;;;;;45.58;25.25;;;4.70;99.90;;;;;;5065930;28;20295;-80
2020/12/14 05:40:48;;;;;;;48.17;26.92;;;4.70;99.90;;;;;;5064729;28;20215;-81
2020/12/14 05:43:16;;;;;;;46.45;25.90;;;4.70;99.90;;;;;;5065848;28;20222;-81
2020/12/14 05:45:46;;;;;;;41.03;23.83;;;4.70;99.90;;;;;;5065841;28;20679;-81
2020/12/14 05:48:25;;;;;;;45.17;23.85;;;4.70;99.90;;;;;;5066897;28;20277;-81
2020/12/14 05:50:54;;;;;;;41.65;24.90;;;4.70;99.90;;;;;;5065581;28;20225;-83
2020/12/14 05:53:21;;;;;;;38.55;23.30;;;4.80;99.90;;;;;;5064823;28;20115;-81
2020/12/14 05:55:48;;;;;;;41.92;25.88;;;4.70;99.90;;;;;;5067899;28;20238;-81
2020/12/14 05:58:16;;;;;;;42.20;25.23;;;4.70;99.90;;;;;;5071714;28;20291;-78
2020/12/14 06:00:46;;;;;;;44.88;24.40;;;4.70;99.90;;;;;;5080140;28;20202;-80
2020/12/14 06:03:12;;;;;;;46.65;27.15;;;4.70;99.90;;;;;;5072330;28;20739;-80
2020/12/14 06:05:40;;;;;;;49.63;28.52;;;4.70;99.90;;;;;;5070101;28;20246;-82
2020/12/14 06:08:25;;;;;;;49.35;26.20;;;4.80;99.90;;;;;;5069504;28;20305;-81
2020/12/14 06:10:55;;;;;;;56.67;30.30;;;4.80;99.90;;;;;;5069785;28;20225;-81
2020/12/14 06:13:23;;;;;;;60.78;31.20;;;4.90;99.90;;;;;;5069081;28;20641;-81
2020/12/14 06:15:50;;;;;;;50.72;27.13;;;4.80;99.90;;;;;;5069396;28;20207;-81
2020/12/14 06:18:22;;;;;;;58.75;34.28;;;4.70;99.90;;;;;;5068809;28;20435;-81
2020/12/14 06:20:52;;;;;;;52.58;28.85;;;4.70;99.90;;;;;;5069455;28;20439;-82
2020/12/14 06:23:19;;;;;;;51.10;29.00;;;4.80;99.90;;;;;;5069328;28;20187;-81
2020/12/14 06:25:46;;;;;;;58.15;32.63;;;4.90;99.90;;;;;;5069706;28;20230;-81
2020/12/14 06:28:27;;;;;;;48.20;28.75;;;4.90;99.90;;;;;;5091091;22;20319;-87
2020/12/14 06:30:55;;;;;;;50.17;30.83;;;4.90;99.90;;;;;;5064782;28;20215;-87
2020/12/14 06:33:33;;;;;;;54.92;28.05;;;4.70;99.90;;;;;;5063385;28;20694;-87
2020/12/14 06:36:15;;;;;;;48.58;27.90;;;4.60;99.90;;;;;;5063961;28;20191;-87
2020/12/14 06:38:43;;;;;;;49.00;28.75;;;4.60;99.90;;;;;;5071675;28;20215;-86
2020/12/14 06:41:14;;;;;;;56.58;30.13;;;4.60;99.90;;;;;;5080701;28;20229;-87
2020/12/14 06:43:41;;;;;;;50.55;27.90;;;4.60;99.90;;;;;;5075866;28;20289;-89
2020/12/14 06:46:08;;;;;;;43.80;26.23;;;4.60;99.90;;;;;;5068945;28;20258;-87
2020/12/14 06:48:43;;;;;;;50.08;27.00;;;4.70;99.90;;;;;;5066217;28;20261;-86
2020/12/14 06:51:12;;;;;;;47.22;25.08;;;4.80;99.90;;;;;;5066796;28;20269;-86
2020/12/14 06:53:44;;;;;;;43.22;24.33;;;4.80;99.90;;;;;;5061171;28;20219;-87
2020/12/14 06:56:13;;;;;;;48.53;26.05;;;4.70;99.90;;;;;;5059803;28;20199;-87
2020/12/14 06:58:41;;;;;;;44.10;25.33;;;4.80;99.90;;;;;;5059537;28;20223;-87
2020/12/14 07:01:34;;;;;;;45.10;26.20;;;4.70;99.90;;;;;;5059294;28;20237;-86
2020/12/14 07:04:02;;;;;;;45.75;25.50;;;4.60;99.90;;;;;;5067744;28;20210;-87
2020/12/14 07:06:30;;;;;;;51.10;27.42;;;4.50;99.90;;;;;;5077763;28;20203;-87
2020/12/14 07:08:57;;;;;;;50.97;25.35;;;4.50;99.90;;;;;;5062172;28;20223;-87
2020/12/14 07:11:25;;;;;;;42.30;23.70;;;4.60;99.90;;;;;;5061229;28;20594;-87
2020/12/14 07:13:53;;;;;;;44.60;26.13;;;4.70;99.90;;;;;;5060243;28;20290;-86
2020/12/14 07:16:26;;;;;;;39.67;23.38;;;4.50;99.90;;;;;;5061415;28;20258;-87
2020/12/14 07:18:53;;;;;;;37.92;24.13;;;4.60;99.90;;;;;;5061525;28;20215;-87
2020/12/14 07:21:21;;;;;;;36.97;21.33;;;4.60;99.90;;;;;;5060186;28;20686;-87
2020/12/14 07:23:48;;;;;;;35.78;22.95;;;4.70;99.90;;;;;;5059675;28;20195;-87
2020/12/14 07:26:16;;;;;;;37.78;23.45;;;4.70;99.90;;;;;;5060661;28;20210;-87
2020/12/14 07:28:45;;;;;;;35.85;21.83;;;4.70;99.90;;;;;;5062903;28;20231;-87
2020/12/14 07:31:13;;;;;;;39.22;22.33;;;4.80;99.90;;;;;;5061243;28;20206;-87
2020/12/14 07:33:41;;;;;;;37.88;22.75;;;4.70;99.90;;;;;;5060509;28;20566;-87
2020/12/14 07:36:09;;;;;;;30.60;20.48;;;4.70;99.90;;;;;;5074036;28;20203;-87
2020/12/14 07:38:48;;;;;;;36.85;22.73;;;4.60;99.90;;;;;;5076578;28;20249;-87
2020/12/14 07:41:15;;;;;;;34.00;21.08;;;4.60;99.90;;;;;;5078026;28;20187;-87
2020/12/14 07:43:50;;;;;;;35.42;21.73;;;4.60;99.90;;;;;;5078384;28;20188;-87
2020/12/14 07:46:29;;;;;;;35.70;22.50;;;4.80;99.90;;;;;;5075865;28;20218;-87
2020/12/14 07:49:01;;;;;;;30.67;22.20;;;4.80;99.90;;;;;;5074872;28;20233;-87
2020/12/14 07:51:28;;;;;;;34.38;23.35;;;4.70;99.90;;;;;;5065193;28;20206;-87
2020/12/14 07:54:10;;;;;;;32.65;20.88;;;4.60;99.90;;;;;;5063196;28;20227;-86
2020/12/14 07:56:41;;;;;;;33.67;21.70;;;4.60;99.90;;;;;;5060591;28;20737;-87
2020/12/14 07:59:17;;;;;;;34.45;22.73;;;4.70;99.90;;;;;;5060435;28;20222;-87
2020/12/14 08:01:45;;;;;;;34.10;22.50;;;4.70;99.90;;;;;;5061143;28;20187;-87
2020/12/14 08:04:12;;;;;;;31.30;21.63;;;4.70;99.90;;;;;;5062174;28;20350;-86
2020/12/14 08:06:41;;;;;;;32.97;21.05;;;4.70;99.90;;;;;;5062301;28;20187;-86
2020/12/14 08:09:10;;;;;;;35.13;22.77;;;4.70;99.90;;;;;;5059144;28;20229;-87
2020/12/14 08:11:37;;;;;;;30.67;21.77;;;4.80;99.90;;;;;;5062575;28;20202;-86
2020/12/14 08:14:08;;;;;;;31.50;20.90;;;4.90;99.90;;;;;;5063032;28;20306;-86
2020/12/14 08:16:35;;;;;;;31.25;22.90;;;4.90;99.90;;;;;;5059431;28;20188;-86
2020/12/14 08:19:01;;;;;;;36.92;21.35;;;4.90;99.90;;;;;;5064295;28;20230;-86
2020/12/14 08:21:28;;;;;;;29.92;21.05;;;4.80;99.90;;;;;;5076959;28;20194;-86
2020/12/14 08:23:55;;;;;;;34.40;21.60;;;4.70;99.90;;;;;;5079060;28;20194;-87
2020/12/14 08:26:30;;;;;;;33.35;22.98;;;4.80;99.90;;;;;;5078783;28;20222;-87
2020/12/14 08:28:58;;;;;;;32.45;22.38;;;4.70;99.90;;;;;;5078140;28;20294;-87
2020/12/14 08:31:25;;;;;;;30.95;23.63;;;4.70;99.90;;;;;;5078192;28;20219;-87
2020/12/14 08:33:52;;;;;;;34.92;22.63;;;4.70;99.90;;;;;;5078009;28;20230;-87
2020/12/14 08:36:19;;;;;;;34.83;22.55;;;4.70;99.90;;;;;;5077937;28;20222;-85
2020/12/14 08:38:46;;;;;;;34.20;22.45;;;4.80;99.90;;;;;;5078533;28;20238;-84
2020/12/14 08:41:18;;;;;;;32.35;22.20;;;4.70;99.90;;;;;;5077926;28;20171;-85
2020/12/14 08:43:45;;;;;;;31.13;21.58;;;4.80;99.90;;;;;;5077848;28;20176;-85
2020/12/14 08:46:14;;;;;;;29.38;21.63;;;4.80;99.90;;;;;;5077905;28;20187;-84
2020/12/14 08:48:43;;;;;;;32.03;20.38;;;4.90;99.90;;;;;;5078186;28;20219;-85
2020/12/14 08:51:12;;;;;;;35.42;22.27;;;4.90;99.90;;;;;;5077704;28;20278;-86
2020/12/14 08:53:40;;;;;;;34.15;23.52;;;4.90;99.90;;;;;;5077451;28;20194;-85
2020/12/14 08:56:08;;;;;;;34.65;23.00;;;4.80;99.90;;;;;;5076913;28;20199;-85
2020/12/14 08:58:50;;;;;;;27.20;20.58;;;4.80;99.90;;;;;;5077581;28;20226;-85
2020/12/14 09:01:19;;;;;;;30.90;21.85;;;4.90;99.90;;;;;;5078418;28;20190;-85
2020/12/14 09:03:47;;;;;;;30.98;21.23;;;5.00;99.90;;;;;;5078603;28;20171;-85
2020/12/14 09:06:24;;;;;;;27.33;19.90;;;5.10;99.90;;;;;;5077287;28;20230;-85
2020/12/14 09:09:00;;;;;;;31.50;20.60;;;5.10;99.90;;;;;;5075742;28;20249;-86
2020/12/14 09:11:28;;;;;;;28.90;19.85;;;5.10;99.90;;;;;;5071503;28;20198;-86
2020/12/14 09:13:56;;;;;;;30.10;20.20;;;5.10;99.90;;;;;;5070534;28;20211;-86
2020/12/14 09:16:23;;;;;;;27.48;19.92;;;5.10;99.90;;;;;;5073004;28;20202;-86
2020/12/14 09:18:50;;;;;;;30.10;20.52;;;5.10;99.90;;;;;;5072333;28;20231;-86
2020/12/14 09:21:17;;;;;;;26.50;20.10;;;5.20;99.90;;;;;;5067257;28;20192;-86
2020/12/14 09:23:44;;;;;;;29.38;19.65;;;5.20;99.90;;;;;;5064139;28;20203;-86
2020/12/14 09:26:12;;;;;;;32.22;19.48;;;5.20;99.90;;;;;;5070102;28;20207;-88
2020/12/14 09:28:39;;;;;;;30.05;20.45;;;5.20;99.90;;;;;;5071777;28;20223;-86
2020/12/14 09:31:09;;;;;;;25.98;17.85;;;5.40;99.90;;;;;;5069155;28;20231;-86
2020/12/14 09:33:35;;;;;;;25.02;17.35;;;5.40;99.90;;;;;;5064683;28;20207;-86
2020/12/14 09:36:02;;;;;;;22.00;15.30;;;5.60;99.90;;;;;;5061380;28;20678;-86
2020/12/14 09:38:29;;;;;;;25.10;16.67;;;5.70;99.90;;;;;;5059859;28;20235;-86
2020/12/14 09:40:56;;;;;;;25.00;15.82;;;5.60;99.90;;;;;;5060025;28;20203;-86
2020/12/14 09:43:25;;;;;;;24.52;16.88;;;5.60;99.90;;;;;;5075845;28;20254;-86
2020/12/14 09:45:54;;;;;;;24.23;17.10;;;5.70;99.90;;;;;;5070665;28;20270;-85
2020/12/14 09:48:22;;;;;;;23.33;15.25;;;5.80;99.90;;;;;;5067926;28;20231;-86
2020/12/14 09:50:52;;;;;;;26.50;17.17;;;5.70;99.90;;;;;;5060496;28;20222;-85
2020/12/14 09:53:19;;;;;;;27.70;17.67;;;5.80;99.90;;;;;;5059602;28;20219;-86
2020/12/14 09:55:51;;;;;;;25.65;17.90;;;5.70;99.90;;;;;;5058868;28;20695;-86
2020/12/14 09:58:18;;;;;;;23.73;16.55;;;5.70;99.90;;;;;;5059332;28;20227;-86
2020/12/14 10:00:51;;;;;;;23.80;16.20;;;5.70;99.90;;;;;;5059193;28;20198;-87
2020/12/14 10:03:47;;;;;;;;;;;;;;;;;;;;;
2020/12/14 10:13:41;;;;;;;26.52;17.88;;;5.80;99.90;;;;;;5035138;28;20262;-86
2020/12/14 10:16:08;;;;;;;23.27;16.90;;;5.80;99.90;;;;;;5062725;28;20286;-87
2020/12/14 10:18:38;;;;;;;29.77;17.98;;;5.80;99.90;;;;;;5063965;28;20222;-86
2020/12/14 10:21:06;;;;;;;29.85;18.48;;;5.80;99.90;;;;;;5064812;28;20205;-80
2020/12/14 10:23:42;;;;;;;25.95;18.38;;;5.80;99.90;;;;;;5046260;28;20210;-85
2020/12/14 10:26:14;;;;;;;23.75;16.90;;;5.80;99.90;;;;;;5060439;28;20191;-86
2020/12/14 10:31:41;;;;;;;27.52;17.35;;;5.90;99.90;;;;;;5052259;28;20263;-85
2020/12/14 10:34:09;;;;;;;23.35;16.38;;;6.00;99.90;;;;;;5061891;28;20257;-86
2020/12/14 10:37:00;;;;;;;28.48;17.00;;;5.90;99.90;;;;;;5064164;28;20573;-84
2020/12/14 10:39:28;;;;;;;25.55;16.15;;;6.00;99.90;;;;;;5036097;28;20223;-85
2020/12/14 10:41:54;;;;;;;26.05;17.65;;;6.10;99.90;;;;;;5063818;28;20612;-86
2020/12/14 10:44:22;;;;;;;29.00;17.92;;;6.20;99.90;;;;;;5063370;28;20218;-85
2020/12/14 10:46:49;;;;;;;27.52;18.02;;;6.10;99.90;;;;;;5064998;28;20193;-85
2020/12/14 10:49:18;;;;;;;31.38;18.48;;;6.10;99.90;;;;;;5063681;28;20283;-85
2020/12/14 10:51:48;;;;;;;24.48;16.17;;;6.00;99.90;;;;;;5068531;28;20690;-85
2020/12/14 10:54:14;;;;;;;25.98;16.65;;;6.20;99.90;;;;;;5072343;28;20245;-85
2020/12/14 10:56:41;;;;;;;25.02;18.08;;;6.30;99.90;;;;;;5067140;28;20194;-85
2020/12/14 10:59:07;;;;;;;27.67;19.05;;;6.30;99.90;;;;;;5065538;28;20206;-86
2020/12/14 11:01:51;;;;;;;29.02;18.85;;;6.40;99.90;;;;;;5066418;28;20207;-86
2020/12/14 11:04:19;;;;;;;27.27;18.10;;;6.50;99.90;;;;;;5067518;28;20225;-85
2020/12/14 11:06:58;;;;;;;33.13;18.67;;;6.50;99.90;;;;;;5066692;28;20238;-85
2020/12/14 11:09:29;;;;;;;26.65;17.95;;;6.50;99.90;;;;;;5067881;28;20226;-85
2020/12/14 11:11:59;;;;;;;24.08;15.70;;;6.50;99.90;;;;;;5065597;28;20213;-85
2020/12/14 11:14:28;;;;;;;21.95;15.68;;;6.50;99.90;;;;;;5065650;28;20222;-85
2020/12/14 11:17:27;;;;;;;26.77;15.75;;;6.60;99.90;;;;;;5067060;28;20621;-86
2020/12/14 11:19:55;;;;;;;25.25;16.98;;;6.70;99.90;;;;;;5066387;28;20222;-85
2020/12/14 11:22:27;;;;;;;23.52;16.17;;;6.70;99.90;;;;;;5071227;28;20206;-86
2020/12/14 11:25:01;;;;;;;24.40;16.92;;;6.80;99.90;;;;;;5077925;28;20255;-85
2020/12/14 11:27:35;;;;;;;25.00;17.63;;;6.80;99.90;;;;;;5078985;28;20187;-85
2020/12/14 11:30:06;;;;;;;25.05;16.27;;;6.90;99.90;;;;;;5080004;28;20291;-85
2020/12/14 11:32:37;;;;;;;22.77;15.07;;;6.90;99.90;;;;;;5080328;28;20179;-85
2020/12/14 11:35:07;;;;;;;21.38;15.95;;;6.90;99.90;;;;;;5076150;28;20211;-85
2020/12/14 11:37:46;;;;;;;23.52;15.77;;;6.90;99.90;;;;;;5066925;28;20203;-84
2020/12/14 11:40:33;;;;;;;23.00;13.68;;;6.90;99.90;;;;;;5067421;28;20772;-85
2020/12/14 11:43:31;;;;;;;17.02;13.63;;;6.80;99.90;;;;;;5067526;28;20206;-86
2020/12/14 11:46:21;;;;;;;20.92;13.65;;;6.80;99.90;;;;;;5067867;28;20217;-85
2020/12/14 11:48:49;;;;;;;20.58;13.43;;;6.80;99.90;;;;;;5070659;28;20233;-85
2020/12/14 11:51:27;;;;;;;21.38;13.68;;;7.00;99.90;;;;;;5077647;28;20230;-85
2020/12/14 11:53:54;;;;;;;19.95;13.70;;;7.00;99.90;;;;;;5077790;28;20207;-85
2020/12/14 11:56:21;;;;;;;21.15;15.02;;;7.00;99.90;;;;;;5077830;28;20234;-85
2020/12/14 11:58:48;;;;;;;24.35;14.40;;;7.00;99.90;;;;;;5076435;28;20696;-85
2020/12/14 12:01:39;;;;;;;;;;;;;;;;;;;;;
2020/12/14 12:04:13;;;;;;;19.45;13.38;;;6.90;99.90;;;;;;5075329;28;20171;-85
2020/12/14 12:06:40;;;;;;;18.40;12.65;;;7.00;99.90;;;;;;5077741;28;20209;-86
2020/12/14 12:09:06;;;;;;;22.20;13.90;;;7.00;99.90;;;;;;5077366;28;20211;-85
2020/12/14 12:11:35;;;;;;;23.25;14.05;;;7.10;99.90;;;;;;5075916;28;20225;-85
2020/12/14 12:14:02;;;;;;;17.30;12.63;;;7.00;99.90;;;;;;5072181;28;20254;-85
2020/12/14 12:16:28;;;;;;;19.73;13.07;;;7.10;99.90;;;;;;5064643;28;20217;-86
2020/12/14 12:19:03;;;;;;;21.00;14.13;;;7.20;99.90;;;;;;5069966;28;20231;-85
2020/12/14 12:21:41;;;;;;;20.48;12.68;;;7.10;99.90;;;;;;5077092;28;20190;-87
2020/12/14 12:24:09;;;;;;;22.05;14.00;;;7.20;99.90;;;;;;5074564;28;20222;-86
2020/12/14 12:26:36;;;;;;;18.85;13.35;;;7.20;99.90;;;;;;5079751;28;20191;-85
2020/12/14 12:29:11;;;;;;;21.27;13.80;;;7.20;99.90;;;;;;5110885;22;20230;-82
2020/12/14 12:31:55;;;;;;;18.98;12.93;;;7.20;99.90;;;;;;5062052;28;20647;-79
2020/12/14 12:34:28;;;;;;;20.60;14.65;;;7.20;99.90;;;;;;5061147;28;20238;-81
2020/12/14 12:36:56;;;;;;;25.85;14.38;;;7.10;99.90;;;;;;5059278;28;20201;-81
2020/12/14 12:39:23;;;;;;;19.35;14.68;;;7.10;99.90;;;;;;5058847;28;20250;-81
2020/12/14 12:45:00;;;;;;;17.15;12.77;;;7.10;99.90;;;;;;5062200;28;20210;-81
2020/12/14 12:50:54;;;;;;;24.35;14.27;;;7.30;99.90;;;;;;5061307;28;20242;-81
2020/12/14 12:53:56;;;;;;;24.60;14.35;;;7.50;99.90;;;;;;5061971;28;20199;-81
2020/12/14 12:56:57;;;;;;;;;;;;;;;;;;;;;
2020/12/14 12:59:23;;;;;;;18.33;13.07;;;7.40;99.90;;;;;;5068822;28;20252;-81
2020/12/14 13:01:59;;;;;;;21.52;13.30;;;7.40;99.90;;;;;;5069781;28;20187;-81
2020/12/14 13:04:25;;;;;;;16.52;12.40;;;7.50;99.90;;;;;;5068412;28;20202;-80
2020/12/14 13:06:52;;;;;;;20.15;14.48;;;7.70;99.90;;;;;;5059427;28;20234;-80